createdAt,value
2022-08-18T00:01:10.440Z,97980.16
2022-08-18T00:03:57.430Z,97986.38
2022-08-18T00:06:30.467Z,97979.31
2022-08-18T00:09:00.327Z,97984.75
2022-08-18T00:11:40.479Z,97986.63
2022-08-18T00:14:21.715Z,97988.47
2022-08-18T00:16:54.339Z,97989.53
2022-08-18T00:19:43.604Z,97988.47
2022-08-18T00:22:14.874Z,97989.53
2022-08-18T00:24:48.448Z,97985.75
2022-08-18T00:27:23.260Z,97984.13
2022-08-18T00:29:52.709Z,97992.22
2022-08-18T00:32:24.424Z,97989.53
2022-08-18T00:34:53.318Z,97984.13
2022-08-18T00:37:22.173Z,97980.78
2022-08-18T00:39:53.174Z,97976.19
2022-08-18T00:42:27.331Z,97970.78
2022-08-18T00:45:01.966Z,97980.78
2022-08-18T00:47:41.752Z,97980.78
2022-08-18T00:50:16.980Z,97978.31
2022-08-18T00:52:55.648Z,97972.03
2022-08-18T00:55:24.114Z,97976.44
2022-08-18T00:57:53.981Z,97979.13
2022-08-18T01:00:22.970Z,97975.59
2022-08-18T01:02:55.653Z,97977.47
2022-08-18T01:05:31.038Z,97969.34
2022-08-18T01:08:00.019Z,97974.16
2022-08-18T01:10:28.543Z,97974.16
2022-08-18T01:12:58.565Z,97979.56
2022-08-18T01:15:30.200Z,97969.78
2022-08-18T01:18:20.529Z,97978.75
2022-08-18T01:21:11.609Z,97979.56
2022-08-18T01:23:41.450Z,97990.41
2022-08-18T01:26:09.527Z,97978.75
2022-08-18T01:28:41.273Z,97973.34
2022-08-18T01:31:10.371Z,97966.25
2022-08-18T01:33:44.951Z,97960.81
2022-08-18T01:36:16.689Z,97956.25
2022-08-18T01:38:47.446Z,97962.72
2022-08-18T01:41:27.027Z,97958.34
2022-08-18T01:43:58.702Z,97959.19
2022-08-18T01:46:27.549Z,97959.38
2022-08-18T01:48:56.017Z,97964.16
2022-08-18T01:51:39.495Z,97954.41
2022-08-18T01:54:13.009Z,97956.28
2022-08-18T01:56:42.438Z,97950.06
2022-08-18T01:59:15.223Z,97941.06
2022-08-18T02:01:50.615Z,97934.25
2022-08-18T02:04:35.580Z,97931.53
2022-08-18T02:07:07.241Z,97928.84
2022-08-18T02:09:37.783Z,97935.06
2022-08-18T02:12:07.652Z,97937.97
2022-08-18T02:14:36.161Z,97929.88
2022-08-18T02:17:07.853Z,97936.34
2022-08-18T02:19:36.774Z,97944.66
2022-08-18T02:22:06.111Z,97930.91
2022-08-18T02:24:35.899Z,97940.91
2022-08-18T02:27:04.814Z,97940.91
2022-08-18T02:29:33.285Z,97938.22
2022-08-18T02:32:01.753Z,97943.00
2022-08-18T02:34:30.262Z,97947.34
2022-08-18T02:37:00.273Z,97960.88
2022-08-18T02:39:29.064Z,97950.88
2022-08-18T02:41:59.009Z,97945.47
2022-08-18T02:44:27.521Z,97942.78
2022-08-18T02:46:56.142Z,97941.31
2022-08-18T02:49:25.007Z,97942.19
2022-08-18T02:51:53.688Z,97947.59
2022-08-18T02:54:23.273Z,97952.16
2022-08-18T02:56:52.300Z,97950.28
2022-08-18T02:59:24.354Z,97949.66
2022-08-18T03:01:55.086Z,97958.41
2022-08-18T03:04:29.624Z,97968.38
2022-08-18T03:07:04.050Z,97964.84
2022-08-18T03:09:33.456Z,97971.31
2022-08-18T03:12:01.927Z,97977.75
2022-08-18T03:14:31.825Z,97977.75
2022-08-18T03:17:01.042Z,97973.41
2022-08-18T03:19:30.287Z,97968.63
2022-08-18T03:22:03.099Z,97971.75
2022-08-18T03:24:32.999Z,97975.28
2022-08-18T03:27:01.906Z,97984.25
2022-08-18T03:29:32.975Z,97990.25
2022-08-18T03:32:02.152Z,97987.78
2022-08-18T03:34:30.802Z,97985.91
2022-08-18T03:36:59.308Z,97979.66
2022-08-18T03:39:28.690Z,97980.09
2022-08-18T03:42:01.259Z,97974.88
2022-08-18T03:44:33.793Z,97978.41
2022-08-18T03:47:03.202Z,97974.88
2022-08-18T03:49:32.506Z,97981.94
2022-08-18T03:52:01.429Z,97975.13
2022-08-18T03:54:32.396Z,97985.72
2022-08-18T03:57:01.483Z,97987.59
2022-08-18T03:59:32.174Z,97987.59
2022-08-18T04:02:01.113Z,97991.34
2022-08-18T04:04:29.852Z,97979.91
2022-08-18T04:07:04.781Z,97985.50
2022-08-18T04:09:33.718Z,97984.69
2022-08-18T04:12:10.484Z,97984.06
2022-08-18T04:14:48.612Z,97983.03
2022-08-18T04:17:17.861Z,97988.44
2022-08-18T04:19:47.022Z,97989.47
2022-08-18T04:22:17.077Z,97987.59
2022-08-18T04:24:46.021Z,97988.44
2022-08-18T04:27:14.553Z,97983.03
2022-08-18T04:29:44.833Z,97981.16
2022-08-18T04:32:13.309Z,97981.16
2022-08-18T04:34:41.905Z,97984.88
2022-08-18T04:37:11.026Z,97978.66
2022-08-18T04:39:39.757Z,97985.28
2022-08-18T04:42:08.524Z,97993.63
2022-08-18T04:44:38.955Z,97985.53
2022-08-18T04:47:09.162Z,97988.22
2022-08-18T04:49:38.420Z,97996.09
2022-08-18T04:52:40.710Z,97988.00
2022-08-18T04:55:10.651Z,97987.16
2022-08-18T04:57:39.257Z,97984.69
2022-08-18T05:00:13.866Z,97985.94
2022-08-18T05:02:44.058Z,97994.25
2022-08-18T05:05:12.465Z,97990.72
2022-08-18T05:07:46.061Z,97984.88
2022-08-18T05:10:18.013Z,97989.47
2022-08-18T05:12:49.229Z,97987.78
2022-08-18T05:15:19.037Z,97984.06
2022-08-18T05:17:49.861Z,97993.63
2022-08-18T05:20:20.785Z,97990.53
2022-08-18T05:22:49.958Z,97984.47
2022-08-18T05:25:18.707Z,97992.56
2022-08-18T05:27:47.463Z,97994.22
2022-08-18T05:30:16.093Z,97995.72
2022-08-18T05:32:49.588Z,98003.00
2022-08-18T05:35:24.667Z,97998.22
2022-08-18T05:38:14.035Z,97998.22
2022-08-18T05:40:42.571Z,98005.28
2022-08-18T05:43:11.262Z,98002.78
2022-08-18T05:45:40.963Z,98000.50
2022-08-18T05:48:10.919Z,98002.19
2022-08-18T05:50:41.175Z,98003.41
2022-08-18T05:53:14.570Z,97998.63
2022-08-18T05:56:05.293Z,98003.00
2022-08-18T05:58:36.681Z,98005.28
2022-08-18T06:01:08.841Z,98002.16
2022-08-18T06:03:46.531Z,97998.59
2022-08-18T06:06:19.952Z,98003.00
2022-08-18T06:08:53.966Z,98008.84
2022-08-18T06:11:23.080Z,98011.72
2022-08-18T06:13:57.692Z,98011.31
2022-08-18T06:16:40.596Z,98018.56
2022-08-18T06:19:19.827Z,98015.03
2022-08-18T06:21:53.796Z,98018.56
2022-08-18T06:24:27.773Z,98018.41
2022-08-18T06:27:00.375Z,98022.97
2022-08-18T06:29:41.511Z,98027.31
2022-08-18T06:32:15.186Z,98027.31
2022-08-18T06:35:04.257Z,98022.97
2022-08-18T06:37:56.582Z,98025.22
2022-08-18T06:40:25.241Z,98026.91
2022-08-18T06:42:54.200Z,98026.69
2022-08-18T06:45:35.732Z,98023.38
2022-08-18T06:48:15.507Z,98032.09
2022-08-18T06:50:58.775Z,98028.75
2022-08-18T06:53:53.343Z,98030.22
2022-08-18T06:56:26.310Z,98035.00
2022-08-18T06:58:56.289Z,98022.28
2022-08-18T07:01:25.134Z,98027.06
2022-08-18T07:03:56.631Z,98029.34
2022-08-18T07:06:32.405Z,98031.66
2022-08-18T07:09:24.249Z,98034.13
2022-08-18T07:12:05.973Z,98038.09
2022-08-18T07:14:43.868Z,98031.22
2022-08-18T07:17:14.220Z,98029.13
2022-08-18T07:19:42.835Z,98024.56
2022-08-18T07:22:13.332Z,98029.31
2022-08-18T07:24:46.049Z,98030.38
2022-08-18T07:27:16.029Z,98027.84
2022-08-18T07:30:01.030Z,98023.91
2022-08-18T07:32:34.585Z,98018.69
2022-08-18T07:35:05.735Z,98008.72
2022-08-18T07:37:36.542Z,98013.06
2022-08-18T07:40:12.111Z,98014.13
2022-08-18T07:42:56.766Z,97998.34
2022-08-18T07:45:34.720Z,97993.78
2022-08-18T07:48:27.303Z,98003.31
2022-08-18T07:51:06.660Z,98009.16
2022-08-18T07:53:54.752Z,98009.97
2022-08-18T07:56:37.859Z,98012.88
2022-08-18T07:59:12.167Z,98011.03
2022-08-18T08:01:45.202Z,98016.00
2022-08-18T08:04:26.202Z,98016.63
2022-08-18T08:07:23.519Z,98024.94
2022-08-18T08:09:58.020Z,98011.59
2022-08-18T08:12:33.550Z,98007.84
2022-08-18T08:15:08.949Z,98011.59
2022-08-18T08:17:43.927Z,98022.22
2022-08-18T08:20:22.368Z,98034.28
2022-08-18T08:23:05.299Z,98030.13
2022-08-18T08:25:47.660Z,98041.56
2022-08-18T08:28:27.148Z,98044.91
2022-08-18T08:31:25.549Z,98053.84
2022-08-18T08:33:56.983Z,98047.00
2022-08-18T08:36:29.056Z,98055.09
2022-08-18T08:38:59.199Z,98042.41
2022-08-18T08:41:33.845Z,98044.06
2022-08-18T08:44:09.001Z,98050.72
2022-08-18T08:46:43.489Z,98050.91
2022-08-18T08:49:22.844Z,98045.06
2022-08-18T08:51:56.859Z,98049.38
2022-08-18T08:54:27.971Z,98047.88
2022-08-18T08:56:59.607Z,98046.22
2022-08-18T08:59:29.493Z,98037.34
2022-08-18T09:02:37.670Z,98041.13
2022-08-18T09:05:09.878Z,98048.59
2022-08-18T09:08:23.097Z,98043.41
2022-08-18T09:11:21.314Z,98049.00
2022-08-18T09:14:24.655Z,98046.09
2022-08-18T09:17:13.272Z,98047.97
2022-08-18T09:19:58.094Z,98040.88
2022-08-18T09:22:36.710Z,98037.28
2022-08-18T09:25:10.800Z,98039.38
2022-08-18T09:28:09.442Z,98041.06
2022-08-18T09:30:55.297Z,98038.97
2022-08-18T09:33:45.403Z,98031.47
2022-08-18T09:36:30.269Z,98029.78
2022-08-18T09:39:20.553Z,98036.66
2022-08-18T09:41:54.190Z,98035.00
2022-08-18T09:45:08.783Z,98037.03
2022-08-18T09:48:28.269Z,98044.53
2022-08-18T09:51:40.220Z,98043.94
2022-08-18T09:54:21.193Z,98044.78
2022-08-18T09:57:22.817Z,98039.56
2022-08-18T10:00:28.416Z,98035.22
2022-08-18T10:03:25.748Z,98028.06
2022-08-18T10:06:15.875Z,98025.75
2022-08-18T10:09:27.196Z,98029.53
2022-08-18T10:12:42.997Z,98026.81
2022-08-18T10:15:40.766Z,98025.34
2022-08-18T10:18:45.522Z,98012.50
2022-08-18T10:21:21.184Z,98010.34
2022-08-18T10:24:14.749Z,98011.78
2022-08-18T10:27:13.347Z,98006.97
2022-08-18T10:29:56.861Z,98012.41
2022-08-18T10:32:54.112Z,98003.25
2022-08-18T10:35:59.139Z,98006.97
2022-08-18T10:38:39.864Z,97994.25
2022-08-18T10:41:22.335Z,97993.53
2022-08-18T10:43:55.591Z,97991.72
2022-08-18T10:46:51.455Z,97981.03
2022-08-18T10:49:26.790Z,97979.44
2022-08-18T10:52:33.934Z,97981.53
2022-08-18T10:55:20.770Z,97983.06
2022-08-18T10:58:09.233Z,97983.06
2022-08-18T11:00:49.458Z,97978.53
2022-08-18T11:03:51.979Z,97974.09
2022-08-18T11:06:26.238Z,97973.38
2022-08-18T11:08:58.038Z,97977.88
2022-08-18T11:14:40.461Z,97963.00
2022-08-18T11:17:14.636Z,97959.00
2022-08-18T11:19:45.789Z,97960.34
2022-08-18T11:22:31.104Z,97950.47
2022-08-18T11:25:01.348Z,97954.31
2022-08-18T11:27:35.760Z,97950.34
2022-08-18T11:30:06.854Z,97951.06
2022-08-18T11:32:42.546Z,97941.31
2022-08-18T11:35:22.309Z,97933.19
2022-08-18T11:37:56.780Z,97937.16
2022-08-18T11:46:30.353Z,97929.03
2022-08-18T11:49:04.427Z,97914.41
2022-08-18T11:51:34.253Z,97912.69
2022-08-18T11:54:05.181Z,97910.63
2022-08-18T11:56:35.885Z,97913.56
2022-08-18T11:59:07.889Z,97915.00
2022-08-18T12:01:42.390Z,97913.22
2022-08-18T12:04:23.337Z,97907.59
2022-08-18T12:07:04.532Z,97893.22
2022-08-18T12:12:30.865Z,97896.47
2022-08-18T12:15:13.805Z,97897.31
2022-08-18T12:17:52.582Z,97905.44
2022-08-18T12:20:38.550Z,97897.06
2022-08-18T12:23:07.039Z,97897.13
2022-08-18T12:25:35.534Z,97891.41
2022-08-18T12:28:10.951Z,97884.50
2022-08-18T12:30:42.021Z,97880.97
2022-08-18T12:33:12.567Z,97877.28
2022-08-18T12:35:44.720Z,97879.63
2022-08-18T12:38:14.504Z,97875.91
2022-08-18T12:40:44.827Z,97877.28
2022-08-18T12:43:14.174Z,97874.84
2022-08-18T12:45:43.601Z,97875.56
2022-08-18T12:48:12.408Z,97874.13
2022-08-18T12:50:54.348Z,97864.44
2022-08-18T12:53:29.736Z,97869.13
2022-08-18T12:56:08.686Z,97866.59
2022-08-18T12:58:40.461Z,97877.34
2022-08-18T13:01:09.787Z,97866.50
2022-08-18T13:03:42.591Z,97875.09
2022-08-18T13:06:12.862Z,97877.03
2022-08-18T13:08:48.010Z,97878.94
2022-08-18T13:11:23.683Z,97884.69
2022-08-18T13:13:56.084Z,97883.91
2022-08-18T13:16:30.507Z,97899.25
2022-08-18T13:18:59.999Z,97899.81
2022-08-18T13:21:40.972Z,97897.00
2022-08-18T13:24:10.431Z,97900.09
2022-08-18T13:26:45.594Z,97903.06
2022-08-18T13:29:15.567Z,97905.50
2022-08-18T13:31:57.309Z,97911.78
2022-08-18T13:34:29.978Z,97921.13
2022-08-18T13:37:00.534Z,97913.28
2022-08-18T13:39:33.850Z,97912.66
2022-08-18T13:42:28.369Z,97906.38
2022-08-18T13:44:53.314Z,97912.03
2022-08-18T13:47:23.482Z,97913.25
2022-08-18T13:49:58.595Z,97910.88
2022-08-18T13:52:34.683Z,97910.53
2022-08-18T13:55:16.753Z,97913.94
2022-08-18T13:57:49.738Z,97908.63
2022-08-18T14:00:29.684Z,97906.88
2022-08-18T14:03:03.235Z,97896.09
2022-08-18T14:05:36.792Z,97903.50
2022-08-18T14:08:21.540Z,97902.03
2022-08-18T14:10:52.250Z,97902.03
2022-08-18T14:13:25.066Z,97910.88
2022-08-18T14:15:54.706Z,97903.53
2022-08-18T14:18:28.981Z,97903.44
2022-08-18T14:21:22.970Z,97905.72
2022-08-18T14:24:14.295Z,97902.25
2022-08-18T14:26:50.334Z,97904.28
2022-08-18T14:29:44.775Z,97892.59
2022-08-18T14:32:08.566Z,97885.00
2022-08-18T14:34:37.383Z,97886.13
2022-08-18T14:37:06.316Z,97881.72
2022-08-18T14:39:40.284Z,97881.84
2022-08-18T14:42:09.269Z,97879.59
2022-08-18T14:44:41.624Z,97879.06
2022-08-18T14:47:24.175Z,97871.66
2022-08-18T14:49:53.521Z,97859.63
2022-08-18T14:52:24.216Z,97865.41
2022-08-18T14:54:55.253Z,97863.75
2022-08-18T14:57:24.145Z,97864.59
2022-08-18T14:59:53.192Z,97860.22
2022-08-18T15:02:26.069Z,97857.25
2022-08-18T15:04:57.816Z,97861.63
2022-08-18T15:07:27.002Z,97865.88
2022-08-18T15:10:14.304Z,97872.94
2022-08-18T15:12:45.239Z,97881.69
2022-08-18T15:15:15.964Z,97881.78
2022-08-18T15:17:50.471Z,97878.09
2022-08-18T15:20:23.894Z,97874.00
2022-08-18T15:23:18.161Z,97876.38
2022-08-18T15:25:54.328Z,97877.53
2022-08-18T15:28:25.298Z,97870.63
2022-08-18T15:33:43.178Z,97869.66
2022-08-18T15:36:16.100Z,97872.38
2022-08-18T15:38:45.286Z,97877.09
2022-08-18T15:41:29.051Z,97881.78
2022-08-18T15:44:00.980Z,97886.97
2022-08-18T15:46:29.863Z,97887.75
2022-08-18T15:48:59.178Z,97889.03
2022-08-18T15:51:35.441Z,97883.97
2022-08-18T15:54:11.419Z,97884.69
2022-08-18T15:56:43.231Z,97882.84
2022-08-18T15:59:12.767Z,97882.63
2022-08-18T16:01:43.429Z,97879.06
2022-08-18T16:04:15.583Z,97881.31
2022-08-18T16:06:47.773Z,97882.03
2022-08-18T16:09:17.928Z,97883.13
2022-08-18T16:11:48.138Z,97878.75
2022-08-18T16:14:17.424Z,97867.03
2022-08-18T16:16:46.277Z,97874.97
2022-08-18T16:19:15.066Z,97867.66
2022-08-18T16:21:43.830Z,97863.50
2022-08-18T16:24:14.532Z,97862.09
2022-08-18T16:26:45.425Z,97869.66
2022-08-18T16:29:15.515Z,97877.09
2022-08-18T16:31:44.310Z,97877.31
2022-08-18T16:34:13.038Z,97869.41
2022-08-18T16:36:41.918Z,97870.47
2022-08-18T16:39:10.724Z,97874.38
2022-08-18T16:41:39.864Z,97875.06
2022-08-18T16:44:08.561Z,97876.38
2022-08-18T16:46:38.822Z,97878.47
2022-08-18T16:49:08.156Z,97870.94
2022-08-18T16:51:37.203Z,97868.22
2022-08-18T16:54:06.077Z,97860.50
2022-08-18T16:56:36.035Z,97860.50
2022-08-18T16:59:22.745Z,97852.00
2022-08-18T17:02:22.138Z,97841.97
2022-08-18T17:04:52.082Z,97846.84
2022-08-18T17:07:21.043Z,97837.03
2022-08-18T17:09:50.798Z,97835.84
2022-08-18T17:12:19.585Z,97839.84
2022-08-18T17:14:51.962Z,97843.38
2022-08-18T17:17:22.517Z,97847.72
2022-08-18T17:19:52.030Z,97838.16
2022-08-18T17:22:20.838Z,97839.44
2022-08-18T17:24:50.538Z,97843.22
2022-08-18T17:27:26.352Z,97847.59
2022-08-18T17:30:01.615Z,97857.84
2022-08-18T17:35:14.314Z,97870.56
2022-08-18T17:37:49.469Z,97867.50
2022-08-18T17:40:21.191Z,97855.22
2022-08-18T17:42:51.806Z,97862.53
2022-08-18T17:45:22.191Z,97874.44
2022-08-18T17:47:56.055Z,97885.06
2022-08-18T17:50:45.491Z,97880.88
2022-08-18T17:53:14.530Z,97877.34
2022-08-18T17:55:45.222Z,97878.16
2022-08-18T17:58:16.401Z,97884.06
2022-08-18T18:00:45.349Z,97894.69
2022-08-18T18:03:15.473Z,97885.47
2022-08-18T18:05:47.334Z,97894.06
2022-08-18T18:08:17.520Z,97894.06
2022-08-18T18:11:05.374Z,97900.53
2022-08-18T18:13:34.705Z,97900.53
2022-08-18T18:16:19.853Z,97911.63
2022-08-18T18:19:01.143Z,97911.25
2022-08-18T18:21:57.540Z,97911.47
2022-08-18T18:24:24.138Z,97904.41
2022-08-18T18:26:53.464Z,97905.06
2022-08-18T18:29:29.026Z,97900.47
2022-08-18T18:32:01.710Z,97894.22
2022-08-18T18:34:34.887Z,97894.38
2022-08-18T18:37:04.363Z,97900.00
2022-08-18T18:39:36.487Z,97895.66
2022-08-18T18:42:14.465Z,97896.69
2022-08-18T18:44:51.727Z,97896.13
2022-08-18T18:47:37.698Z,97890.28
2022-08-18T18:50:11.023Z,97897.59
2022-08-18T18:52:44.661Z,97887.00
2022-08-18T18:55:16.913Z,97876.97
2022-08-18T18:57:49.419Z,97878.25
2022-08-18T19:00:21.125Z,97865.31
2022-08-18T19:02:57.937Z,97860.09
2022-08-18T19:05:31.213Z,97851.00
2022-08-18T19:08:06.250Z,97844.50
2022-08-18T19:10:38.209Z,97852.88
2022-08-18T19:13:12.396Z,97858.31
2022-08-18T19:16:00.785Z,97839.31
2022-08-18T19:18:31.019Z,97834.50
2022-08-18T19:22:02.396Z,97825.16
2022-08-18T19:23:58.633Z,97829.97
2022-08-18T19:26:29.384Z,97834.34
2022-08-18T19:29:12.409Z,97833.50
2022-08-18T19:31:45.752Z,97827.97
2022-08-18T19:34:16.657Z,97827.09
2022-08-18T19:36:50.623Z,97825.66
2022-08-18T19:39:20.755Z,97833.28
2022-08-18T19:41:51.107Z,97838.09
2022-08-18T19:44:32.472Z,97834.19
2022-08-18T19:47:06.445Z,97829.81
2022-08-18T19:49:37.246Z,97820.84
2022-08-18T19:52:45.842Z,97809.34
2022-08-18T19:55:11.769Z,97813.28
2022-08-18T19:58:07.759Z,97817.63
2022-08-18T20:00:42.384Z,97826.06
2022-08-18T20:03:35.120Z,97824.06
2022-08-18T20:06:34.373Z,97817.88
2022-08-18T20:09:33.587Z,97815.38
2022-08-18T20:12:17.721Z,97808.75
2022-08-18T20:15:00.128Z,97808.69
2022-08-18T20:17:28.945Z,97807.59
2022-08-18T20:20:18.384Z,97800.84
2022-08-18T20:22:47.995Z,97815.38
2022-08-18T20:25:43.797Z,97809.13
2022-08-18T20:28:40.257Z,97801.28
2022-08-18T20:31:15.124Z,97792.63
2022-08-18T20:33:47.336Z,97792.25
2022-08-18T20:36:25.951Z,97787.88
2022-08-18T20:38:55.568Z,97791.03
2022-08-18T20:41:43.936Z,97789.84
2022-08-18T20:44:43.912Z,97792.25
2022-08-18T20:47:33.445Z,97787.56
2022-08-18T20:50:24.924Z,97785.72
2022-08-18T20:52:59.887Z,97787.41
2022-08-18T20:55:34.490Z,97786.72
2022-08-18T20:58:08.367Z,97788.16
2022-08-18T21:00:39.009Z,97788.91
2022-08-18T21:03:09.518Z,97779.53
2022-08-18T21:05:39.571Z,97788.44
2022-08-18T21:08:27.401Z,97777.63
2022-08-18T21:10:57.974Z,97770.09
2022-08-18T21:13:40.585Z,97775.06
2022-08-18T21:16:09.759Z,97780.94
2022-08-18T21:18:38.466Z,97769.44
2022-08-18T21:21:14.682Z,97779.66
2022-08-18T21:23:52.155Z,97779.38
2022-08-18T21:26:20.777Z,97786.84
2022-08-18T21:28:52.979Z,97792.81
2022-08-18T21:31:43.289Z,97802.22
2022-08-18T21:34:15.935Z,97793.69
2022-08-18T21:36:51.514Z,97800.06
2022-08-18T21:39:20.653Z,97786.56
2022-08-18T21:41:51.563Z,97793.41
2022-08-18T21:44:24.670Z,97800.22
2022-08-18T21:46:53.947Z,97792.19
2022-08-18T21:49:28.814Z,97794.81
2022-08-18T21:51:57.570Z,97782.69
2022-08-18T21:54:30.222Z,97791.03
2022-08-18T21:57:22.261Z,97794.59
2022-08-18T22:00:19.553Z,97790.13
2022-08-18T22:02:52.386Z,97781.97
2022-08-18T22:05:58.347Z,97774.28
2022-08-18T22:08:22.665Z,97778.47
2022-08-18T22:11:41.868Z,97775.09
2022-08-18T22:14:35.740Z,97769.44
2022-08-18T22:17:33.025Z,97790.00
2022-08-18T22:20:43.171Z,97782.94
2022-08-18T22:23:47.569Z,97787.91
2022-08-18T22:26:21.574Z,97778.13
2022-08-18T22:28:55.353Z,97787.09
2022-08-18T22:31:24.318Z,97795.59
2022-08-18T22:33:54.974Z,97799.72
2022-08-18T22:36:26.591Z,97797.84
2022-08-18T22:38:55.180Z,97798.44
2022-08-18T22:41:23.747Z,97798.44
2022-08-18T22:43:55.038Z,97799.06
2022-08-18T22:46:25.074Z,97804.47
2022-08-18T22:48:55.406Z,97787.41
2022-08-18T22:51:25.207Z,97794.47
2022-08-18T22:53:53.747Z,97799.88
2022-08-18T22:56:22.776Z,97796.97
2022-08-18T22:59:13.855Z,97795.28
2022-08-18T23:01:48.193Z,97798.00
2022-08-18T23:04:19.032Z,97800.72
2022-08-18T23:06:51.841Z,97795.28
2022-08-18T23:09:25.146Z,97786.94
2022-08-18T23:11:54.398Z,97795.91
2022-08-18T23:14:23.238Z,97805.09
2022-08-18T23:16:51.820Z,97797.78
2022-08-18T23:19:22.656Z,97815.69
2022-08-18T23:21:51.614Z,97807.81
2022-08-18T23:24:20.759Z,97807.81
2022-08-18T23:26:50.122Z,97806.75
2022-08-18T23:29:19.941Z,97790.47
2022-08-18T23:31:49.031Z,97800.25
2022-08-18T23:34:18.548Z,97795.91
2022-08-18T23:36:53.457Z,97800.25
2022-08-18T23:39:22.927Z,97789.41
2022-08-18T23:41:51.943Z,97793.19
2022-08-18T23:44:20.907Z,97791.31
2022-08-18T23:46:52.485Z,97790.28
2022-08-18T23:49:21.077Z,97784.00
2022-08-18T23:51:55.112Z,97784.00
2022-08-18T23:54:25.603Z,97778.59
2022-08-18T23:56:54.155Z,97777.53
2022-08-18T23:59:23.663Z,97773.78
